Map

Track Data

SID SEASON NUMBER BASIN SUBBASIN NAME ISO_TIME NATURE LAT LON WMO_WIND WMO_PRES WMO_AGENCY TRACK_TYPE DIST2LAND LANDFALL IFLAG USA_AGENCY USA_ATCF_ID USA_LAT USA_LON USA_RECORD USA_STATUS USA_WIND USA_PRES USA_SSHS USA_R34_NE USA_R34_SE USA_R34_SW USA_R34_NW USA_R50_NE USA_R50_SE USA_R50_SW USA_R50_NW USA_R64_NE USA_R64_SE USA_R64_SW USA_R64_NW USA_POCI USA_ROCI USA_RMW USA_EYE TOKYO_LAT TOKYO_LON TOKYO_GRADE TOKYO_WIND TOKYO_PRES TOKYO_R50_DIR TOKYO_R50_LONG TOKYO_R50_SHORT TOKYO_R30_DIR TOKYO_R30_LONG TOKYO_R30_SHORT TOKYO_LAND CMA_LAT CMA_LON CMA_CAT CMA_WIND CMA_PRES HKO_LAT HKO_LON HKO_CAT HKO_WIND HKO_PRES NEWDELHI_LAT NEWDELHI_LON NEWDELHI_GRADE NEWDELHI_WIND NEWDELHI_PRES NEWDELHI_CI NEWDELHI_DP NEWDELHI_POCI REUNION_LAT REUNION_LON REUNION_TYPE REUNION_WIND REUNION_PRES REUNION_TNUM REUNION_CI REUNION_RMW REUNION_R34_NE REUNION_R34_SE REUNION_R34_SW REUNION_R34_NW REUNION_R50_NE REUNION_R50_SE REUNION_R50_SW REUNION_R50_NW REUNION_R64_NE REUNION_R64_SE REUNION_R64_SW REUNION_R64_NW BOM_LAT BOM_LON BOM_TYPE BOM_WIND BOM_PRES BOM_TNUM BOM_CI BOM_RMW BOM_R34_NE BOM_R34_SE BOM_R34_SW BOM_R34_NW BOM_R50_NE BOM_R50_SE BOM_R50_SW BOM_R50_NW BOM_R64_NE BOM_R64_SE BOM_R64_SW BOM_R64_NW BOM_ROCI BOM_POCI BOM_EYE BOM_POS_METHOD BOM_PRES_METHOD NADI_LAT NADI_LON NADI_CAT NADI_WIND NADI_PRES WELLINGTON_LAT WELLINGTON_LON WELLINGTON_WIND WELLINGTON_PRES DS824_LAT DS824_LON DS824_STAGE DS824_WIND DS824_PRES TD9636_LAT TD9636_LON TD9636_STAGE TD9636_WIND TD9636_PRES TD9635_LAT TD9635_LON TD9635_WIND TD9635_PRES TD9635_ROCI NEUMANN_LAT NEUMANN_LON NEUMANN_CLASS NEUMANN_WIND NEUMANN_PRES MLC_LAT MLC_LON MLC_CLASS MLC_WIND MLC_PRES USA_GUST BOM_GUST BOM_GUST_PER REUNION_GUST REUNION_GUST_PER USA_SEAHGT USA_SEARAD_NE USA_SEARAD_SE USA_SEARAD_SW USA_SEARAD_NW STORM_SPEED STORM_DIR
1935080S21399 1935 19 SI MM NOT_NAMED 1935-03-21 06:00:00 NR -21.3000 38.5000 reunion spur-split 325 325 _____O________ -1 -21.3000 38.5000 99 9.90000 1 0
1935080S21399 1935 19 SI MM NOT_NAMED 1935-03-21 09:00:00 NR -21.2725 38.4936 spur-split 325 325 _____P________ -1 -21.2725 38.4936 99 0 0
1935080S21399 1935 19 SI MM NOT_NAMED 1935-03-21 12:00:00 NR -21.2537 38.4973 spur-split 325 325 _____P________ -1 -21.2537 38.4973 99 0 0
1935080S21399 1935 19 SI MM NOT_NAMED 1935-03-21 15:00:00 NR -21.2520 38.5211 spur-split 325 325 _____P________ -1 -21.2520 38.5211 99 1 109
1935080S21399 1935 19 SI MM NOT_NAMED 1935-03-21 18:00:00 NR -21.2761 38.5753 spur-split 335 335 _____P________ -1 -21.2761 38.5753 99 2 121
1935080S21399 1935 19 SI MM NOT_NAMED 1935-03-21 21:00:00 NR -21.3344 38.6699 spur-split 345 342 _____P________ -1 -21.3344 38.6699 99 3 126
1935080S21399 1935 19 SI MM NOT_NAMED 1935-03-22 00:00:00 NR -21.4356 38.8153 spur-split 352 349 _____P________ -1 -21.4356 38.8153 99 4 128
1935080S21399 1935 19 SI MM NOT_NAMED 1935-03-22 03:00:00 NR -21.5880 39.0217 spur-split 367 367 _____P________ -1 -21.5880 39.0217 99 6 129
1935080S21399 1935 19 SI MM NOT_NAMED 1935-03-22 06:00:00 NR -21.8000 39.3000 reunion spur-split 394 370 _____O________ -1 -21.8000 39.3000 99 9.90000 8 130
1935080S21399 1935 19 SI MM NOT_NAMED 1935-03-22 09:00:00 NR -22.0763 39.6567 spur-split 360 318 _____P________ -1 -22.0763 39.6567 99 9 130
1935080S21399 1935 19 SI MM NOT_NAMED 1935-03-22 12:00:00 NR -22.4070 40.0812 spur-split 318 280 _____P________ -1 -22.4070 40.0812 99 11 130
1935080S21399 1935 19 SI MM NOT_NAMED 1935-03-22 15:00:00 NR -22.7790 40.5588 spur-split 272 242 _____P________ -1 -22.7790 40.5588 99 12 130
1935080S21399 1935 19 SI MM NOT_NAMED 1935-03-22 18:00:00 NR -23.1789 41.0743 spur-split 237 199 _____P________ -1 -23.1789 41.0743 99 13 130
1935080S21399 1935 19 SI MM NOT_NAMED 1935-03-22 21:00:00 NR -23.5938 41.6122 spur-split 203 154 _____P________ -1 -23.5938 41.6122 99 13 130
1935080S21399 1935 19 SI MM NOT_NAMED 1935-03-23 00:00:00 NR -24.0106 42.1566 spur-split 146 106 _____P________ -1 -24.0106 42.1566 99 13 130
1935080S21399 1935 19 SI MM NOT_NAMED 1935-03-23 03:00:00 NR -24.4168 42.6914 spur-split 106 64 _____P________ -1 -24.4168 42.6914 99 12 130
1935080S21399 1935 19 SI MM NOT_NAMED 1935-03-23 06:00:00 NR -24.8000 43.2000 reunion spur-split 64 41 _____O________ -1 -24.8000 43.2000 99 9.90000 11 129
1935080S21399 1935 19 SI MM NOT_NAMED 1935-03-23 09:00:00 NR -25.0861 43.5902 spur-split 41 30 _____P________ -1 -25.0861 43.5902 99 9 129
1935080S21399 1935 19 SI MM NOT_NAMED 1935-03-23 12:00:00 NR -25.3530 43.9567 spur-split 39 30 _____P________ -1 -25.3530 43.9567 99 8 129
1935080S21399 1935 19 SI MM NOT_NAMED 1935-03-23 15:00:00 NR -25.6089 44.3088 spur-split 34 34 _____P________ -1 -25.6089 44.3088 99 8 129
1935080S21399 1935 19 SI MM NOT_NAMED 1935-03-23 18:00:00 NR -25.8617 44.6563 spur-split 53 48 _____P________ -1 -25.8617 44.6563 99 8 129
1935080S21399 1935 19 SI MM NOT_NAMED 1935-03-23 21:00:00 NR -26.1194 45.0090 spur-split 59 59 _____P________ -1 -26.1194 45.0090 99 8 129
1935080S21399 1935 19 SI MM NOT_NAMED 1935-03-24 00:00:00 NR -26.3899 45.3770 spur-split 89 89 _____P________ -1 -26.3899 45.3770 99 9 129
1935080S21399 1935 19 SI MM NOT_NAMED 1935-03-24 03:00:00 NR -26.6809 45.7705 spur-split 126 126 _____P________ -1 -26.6809 45.7705 99 10 130
1935080S21399 1935 19 SI MM NOT_NAMED 1935-03-24 06:00:00 NR -27.0000 46.2000 reunion spur-split 171 171 _____O________ -1 -27.0000 46.2000 99 9.90000 11 130
1935080S21399 1935 19 SI MM NOT_NAMED 1935-03-24 09:00:00 NR -27.3922 46.7252 spur-split 233 233 _____P________ -1 -27.3922 46.7252 99 13 130
1935080S21399 1935 19 SI MM NOT_NAMED 1935-03-24 12:00:00 NR -27.8123 47.2893 spur-split 294 294 _____P________ -1 -27.8123 47.2893 99 13 130
1935080S21399 1935 19 SI MM NOT_NAMED 1935-03-24 15:00:00 NR -28.2508 47.8822 spur-split 363 363 _____P________ -1 -28.2508 47.8822 99 14 130
1935080S21399 1935 19 SI MM NOT_NAMED 1935-03-24 18:00:00 NR -28.6984 48.4935 spur-split 425 425 _____P________ -1 -28.6984 48.4935 99 14 130
1935080S21399 1935 19 SI MM NOT_NAMED 1935-03-24 21:00:00 NR -29.1459 49.1123 spur-split 491 491 _____P________ -1 -29.1459 49.1123 99 14 129
1935080S21399 1935 19 SI MM NOT_NAMED 1935-03-25 00:00:00 NR -29.5845 49.7274 spur-split 568 568 _____P________ -1 -29.5845 49.7274 99 14 129
1935080S21399 1935 19 SI MM NOT_NAMED 1935-03-25 03:00:00 NR -30.0053 50.3273 spur-split 636 636 _____P________ -1 -30.0053 50.3273 99 13 129
1935080S21399 1935 19 SI MM NOT_NAMED 1935-03-25 06:00:00 NR -30.4000 50.9000 reunion spur-split 704 704 _____O________ -1 -30.4000 50.9000 99 9.90000 12 128
1935080S21399 1935 19 SI MM NOT_NAMED 1935-03-25 09:00:00 NR -30.7660 51.4487 spur-split 768 768 _____P________ -1 -30.7660 51.4487 99 12 128
1935080S21399 1935 19 SI MM NOT_NAMED 1935-03-25 12:00:00 NR -31.1131 51.9786 spur-split 829 829 _____P________ -1 -31.1131 51.9786 99 11 127
1935080S21399 1935 19 SI MM NOT_NAMED 1935-03-25 15:00:00 NR -31.4395 52.4851 spur-split 885 885 _____P________ -1 -31.4395 52.4851 99 11 127
1935080S21399 1935 19 SI MM NOT_NAMED 1935-03-25 18:00:00 NR -31.7434 52.9636 spur-split 941 941 _____P________ -1 -31.7434 52.9636 99 10 127
1935080S21399 1935 19 SI MM NOT_NAMED 1935-03-25 21:00:00 NR -32.0231 53.4092 spur-split 991 991 _____P________ -1 -32.0231 53.4092 99 9 126
1935080S21399 1935 19 SI MM NOT_NAMED 1935-03-26 00:00:00 NR -32.2769 53.8171 spur-split 1040 1040 _____P________ -1 -32.2769 53.8171 99 8 126
1935080S21399 1935 19 SI MM NOT_NAMED 1935-03-26 03:00:00 NR -32.5031 54.1824 spur-split 1082 1082 _____P________ -1 -32.5031 54.1824 99 7 126
1935080S21399 1935 19 SI MM NOT_NAMED 1935-03-26 06:00:00 NR -32.7000 54.5000 reunion spur-split 1117 1117 _____O________ -1 -32.7000 54.5000 99 9.90000 6 126
1935080S21399 1935 19 SI MM NOT_NAMED 1935-03-26 09:00:00 NR -32.8668 54.7669 spur-split 1153 1153 _____P________ -1 -32.8668 54.7669 99 5 127
1935080S21399 1935 19 SI MM NOT_NAMED 1935-03-26 12:00:00 NR -33.0067 54.9873 spur-split 1174 1174 _____P________ -1 -33.0067 54.9873 99 4 127
1935080S21399 1935 19 SI MM NOT_NAMED 1935-03-26 15:00:00 NR -33.1236 55.1677 spur-split 1195 1195 _____P________ -1 -33.1236 55.1677 99 3 128
1935080S21399 1935 19 SI MM NOT_NAMED 1935-03-26 18:00:00 NR -33.2216 55.3146 spur-split 1209 1209 _____P________ -1 -33.2216 55.3146 99 3 129
1935080S21399 1935 19 SI MM NOT_NAMED 1935-03-26 21:00:00 NR -33.3044 55.4345 spur-split 1224 1224 _____P________ -1 -33.3044 55.4345 99 2 130
1935080S21399 1935 19 SI MM NOT_NAMED 1935-03-27 00:00:00 NR -33.3759 55.5343 spur-split 1238 1238 _____P________ -1 -33.3759 55.5343 99 2 131
1935080S21399 1935 19 SI MM NOT_NAMED 1935-03-27 03:00:00 NR -33.4398 55.6205 spur-split 1244 1244 _____P________ -1 -33.4398 55.6205 99 2 132
1935080S21399 1935 19 SI MM NOT_NAMED 1935-03-27 06:00:00 NR -33.5000 55.7000 reunion spur-split 1259 _____O________ -1 -33.5000 55.7000 99 9.90000 2 133

About IBTrACS Database

This database is a web-friendly format of International Best Track Archive for Climate Stewardship (IBTrACS), a global best track data archive curated by NOAA dating back to 1842.

Updated: 2021-12-01